Terminal Aerodrome Forecast
Issued by NWS Cleveland, OH

Home | Current Version | Previous Version | Graphics & Text | Print | Product List | Glossary Off
Versions: 1 2 3 4 5 6 7 8 9 10 11 12 13 14 15 16 17 18

000
FTUS41 KCLE 302054 AAA
TAFERI
TAF AMD
KERI 302054Z 3021/0118 22010KT P6SM SCT040 BKN150
     FM302300 22010KT 6SM -SHRA VCTS BKN050CB OVC080
      TEMPO 3023/0101 5SM -TSRA BKN050CB
     FM010200 20005KT P6SM VCSH BKN100
     FM010500 20007KT P6SM OVC050
     FM010900 21007KT P6SM BKN050
     FM011200 25008KT P6SM OVC015=

USA.gov is the U.S. government's official web portal to all federal, state and local government web resources and services.